createdAt,value
2022-09-09T00:02:05.509Z,9.48
2022-09-09T00:04:38.873Z,9.65
2022-09-09T00:07:31.329Z,9.10
2022-09-09T00:10:19.898Z,9.20
2022-09-09T00:13:11.718Z,9.38
2022-09-09T00:15:50.877Z,9.33
2022-09-09T00:18:24.304Z,8.80
2022-09-09T00:21:09.965Z,8.65
2022-09-09T00:23:42.980Z,8.75
2022-09-09T00:26:22.320Z,8.90
2022-09-09T00:28:58.809Z,8.78
2022-09-09T00:31:32.241Z,8.85
2022-09-09T00:34:08.288Z,8.98
2022-09-09T00:36:40.598Z,9.08
2022-09-09T00:39:17.066Z,9.43
2022-09-09T00:42:02.221Z,9.33
2022-09-09T00:44:38.219Z,9.83
2022-09-09T00:47:37.612Z,9.00
2022-09-09T00:50:14.377Z,9.50
2022-09-09T00:53:02.938Z,10.05
2022-09-09T00:55:42.347Z,9.68
2022-09-09T00:58:13.923Z,9.30
2022-09-09T01:00:50.314Z,9.88
2022-09-09T01:03:32.741Z,10.18
2022-09-09T01:06:34.784Z,9.70
2022-09-09T01:09:14.453Z,9.13
2022-09-09T01:12:02.843Z,9.30
2022-09-09T01:14:48.443Z,10.55
2022-09-09T01:17:36.568Z,9.50
2022-09-09T01:20:37.051Z,9.60
2022-09-09T01:23:26.699Z,9.15
2022-09-09T01:26:25.437Z,9.60
2022-09-09T01:28:56.622Z,9.98
2022-09-09T01:31:39.021Z,10.03
2022-09-09T01:34:16.921Z,10.00
2022-09-09T01:36:53.010Z,9.75
2022-09-09T01:39:24.447Z,10.35
2022-09-09T01:41:56.790Z,9.65
2022-09-09T01:44:28.830Z,9.58
2022-09-09T01:46:59.318Z,10.65
2022-09-09T01:49:29.923Z,10.15
2022-09-09T01:52:00.767Z,9.20
2022-09-09T01:54:34.155Z,11.28
2022-09-09T01:57:19.536Z,10.70
2022-09-09T02:00:02.064Z,9.63
2022-09-09T02:02:55.467Z,10.35
2022-09-09T02:05:41.036Z,9.78
2022-09-09T02:08:14.486Z,9.75
2022-09-09T02:10:47.954Z,10.53
2022-09-09T02:13:21.414Z,9.65
2022-09-09T02:16:20.641Z,9.43
2022-09-09T02:18:54.539Z,10.65
2022-09-09T02:21:26.381Z,8.55
2022-09-09T02:23:59.928Z,9.70
2022-09-09T02:26:31.212Z,9.65
2022-09-09T02:29:04.669Z,10.48
2022-09-09T02:31:37.028Z,10.63
2022-09-09T02:34:10.462Z,10.80
2022-09-09T02:36:44.582Z,9.25
2022-09-09T02:39:15.802Z,10.13
2022-09-09T02:41:46.106Z,9.83
2022-09-09T02:44:18.803Z,9.80
2022-09-09T02:47:04.106Z,8.83
2022-09-09T02:49:44.978Z,9.05
2022-09-09T02:52:23.397Z,8.98
2022-09-09T02:54:56.946Z,10.08
2022-09-09T02:57:30.201Z,8.78
2022-09-09T03:00:02.347Z,9.35
2022-09-09T03:02:32.840Z,8.85
2022-09-09T03:05:03.267Z,8.75
2022-09-09T03:07:35.946Z,8.50
2022-09-09T03:10:07.348Z,8.68
2022-09-09T03:12:37.848Z,8.60
2022-09-09T03:15:09.335Z,9.60
2022-09-09T03:17:39.968Z,8.58
2022-09-09T03:20:11.165Z,8.80
2022-09-09T03:22:41.631Z,8.83
2022-09-09T03:25:12.011Z,9.30
2022-09-09T03:27:42.385Z,8.80
2022-09-09T03:30:14.804Z,9.08
2022-09-09T03:32:48.887Z,9.15
2022-09-09T03:35:18.034Z,7.90
2022-09-09T03:37:48.806Z,8.40
2022-09-09T03:40:20.628Z,10.48
2022-09-09T03:42:51.037Z,8.75
2022-09-09T03:45:21.462Z,8.70
2022-09-09T03:47:51.869Z,8.70
2022-09-09T03:50:22.384Z,8.70
2022-09-09T03:52:52.759Z,8.25
2022-09-09T03:55:23.138Z,8.65
2022-09-09T03:57:53.632Z,9.13
2022-09-09T04:00:24.079Z,7.97
2022-09-09T04:02:56.222Z,8.20
2022-09-09T04:05:26.767Z,9.68
2022-09-09T04:07:57.092Z,7.78
2022-09-09T04:10:27.891Z,7.00
2022-09-09T04:12:58.384Z,8.03
2022-09-09T04:15:29.032Z,9.83
2022-09-09T04:17:59.544Z,8.20
2022-09-09T04:20:31.236Z,12.75
2022-09-09T04:23:01.759Z,8.50
2022-09-09T04:25:32.463Z,8.60
2022-09-09T04:28:03.797Z,7.10
2022-09-09T04:30:35.755Z,6.35
2022-09-09T04:33:06.141Z,6.80
2022-09-09T04:35:36.790Z,6.83
2022-09-09T04:38:10.478Z,7.83
2022-09-09T04:40:42.684Z,11.87
2022-09-09T04:43:14.597Z,8.45
2022-09-09T04:45:46.035Z,8.20
2022-09-09T04:48:16.849Z,6.67
2022-09-09T04:50:58.831Z,7.12
2022-09-09T04:53:29.487Z,6.75
2022-09-09T04:56:08.242Z,7.00
2022-09-09T04:58:39.460Z,6.65
2022-09-09T05:01:11.666Z,6.67
2022-09-09T05:03:43.065Z,6.67
2022-09-09T05:06:16.736Z,6.17
2022-09-09T05:08:47.271Z,6.42
2022-09-09T05:11:26.675Z,6.80
2022-09-09T05:13:57.966Z,8.48
2022-09-09T05:16:28.511Z,6.37
2022-09-09T05:19:00.015Z,8.03
2022-09-09T05:21:31.641Z,6.22
2022-09-09T05:24:02.167Z,6.10
2022-09-09T05:26:34.192Z,5.65
2022-09-09T05:29:05.126Z,5.80
2022-09-09T05:31:35.566Z,6.72
2022-09-09T05:34:06.030Z,7.95
2022-09-09T05:36:36.824Z,5.80
2022-09-09T05:39:07.398Z,6.55
2022-09-09T05:41:37.869Z,7.37
2022-09-09T05:44:08.841Z,7.03
2022-09-09T05:46:39.308Z,7.37
2022-09-09T05:49:09.841Z,6.20
2022-09-09T05:51:41.305Z,7.35
2022-09-09T05:54:13.739Z,7.30
2022-09-09T05:56:47.755Z,7.40
2022-09-09T05:59:16.840Z,7.78
2022-09-09T06:01:47.935Z,6.92
2022-09-09T06:04:18.987Z,6.33
2022-09-09T06:06:49.697Z,6.05
2022-09-09T06:09:20.079Z,5.92
2022-09-09T06:11:50.484Z,7.78
2022-09-09T06:14:21.525Z,6.83
2022-09-09T06:16:51.872Z,6.62
2022-09-09T06:19:22.252Z,6.65
2022-09-09T06:21:52.559Z,7.00
2022-09-09T06:24:23.204Z,5.80
2022-09-09T06:26:54.995Z,6.10
2022-09-09T06:29:25.481Z,6.97
2022-09-09T06:31:55.967Z,5.80
2022-09-09T06:34:26.499Z,7.47
2022-09-09T06:36:58.891Z,6.08
2022-09-09T06:39:29.499Z,7.60
2022-09-09T06:42:01.589Z,5.45
2022-09-09T06:44:35.215Z,6.25
2022-09-09T06:47:05.082Z,5.75
2022-09-09T06:49:36.015Z,6.72
2022-09-09T06:52:06.463Z,5.10
2022-09-09T06:54:38.368Z,5.15
2022-09-09T06:57:27.103Z,6.55
2022-09-09T06:59:40.898Z,6.33
2022-09-09T07:02:11.359Z,5.58
2022-09-09T07:04:41.783Z,5.62
2022-09-09T07:07:13.915Z,5.92
2022-09-09T07:09:45.953Z,4.35
2022-09-09T07:12:16.363Z,3.98
2022-09-09T07:14:47.073Z,4.75
2022-09-09T07:17:17.446Z,6.75
2022-09-09T07:19:49.146Z,5.12
2022-09-09T07:22:21.110Z,6.33
2022-09-09T07:24:51.522Z,6.60
2022-09-09T07:27:22.239Z,4.67
2022-09-09T07:29:54.907Z,3.02
2022-09-09T07:32:26.512Z,4.65
2022-09-09T07:34:57.016Z,3.62
2022-09-09T07:37:27.402Z,3.58
2022-09-09T07:39:57.966Z,5.85
2022-09-09T07:42:29.063Z,3.65
2022-09-09T07:45:00.399Z,5.45
2022-09-09T07:47:30.807Z,5.05
2022-09-09T07:50:01.193Z,4.08
2022-09-09T07:52:31.683Z,4.55
2022-09-09T07:55:03.321Z,8.10
2022-09-09T07:57:33.923Z,3.70
2022-09-09T08:00:05.943Z,4.35
2022-09-09T08:02:36.325Z,4.03
2022-09-09T08:05:07.127Z,3.98
2022-09-09T08:07:37.554Z,4.17
2022-09-09T08:10:08.635Z,3.27
2022-09-09T08:12:40.280Z,2.95
2022-09-09T08:15:14.845Z,3.90
2022-09-09T08:17:45.615Z,3.80
2022-09-09T08:20:16.048Z,5.35
2022-09-09T08:22:46.367Z,4.12
2022-09-09T08:25:16.834Z,4.10
2022-09-09T08:27:47.249Z,3.45
2022-09-09T08:30:17.785Z,2.75
2022-09-09T08:32:50.777Z,3.77
2022-09-09T08:35:21.442Z,3.30
2022-09-09T08:37:54.837Z,3.37
2022-09-09T08:40:28.318Z,4.50
2022-09-09T08:43:00.938Z,5.40
2022-09-09T08:45:37.029Z,2.90
2022-09-09T08:48:19.103Z,2.30
2022-09-09T08:50:53.095Z,4.45
2022-09-09T08:53:26.716Z,2.95
2022-09-09T08:56:02.588Z,3.72
2022-09-09T08:58:35.820Z,2.98
2022-09-09T09:01:12.334Z,4.55
2022-09-09T09:04:09.796Z,5.17
2022-09-09T09:07:04.057Z,5.35
2022-09-09T09:09:54.438Z,3.92
2022-09-09T09:12:28.005Z,3.10
2022-09-09T09:15:00.503Z,2.92
2022-09-09T09:17:34.101Z,2.87
2022-09-09T09:20:07.274Z,4.95
2022-09-09T09:22:40.783Z,3.02
2022-09-09T09:25:23.459Z,4.17
2022-09-09T09:28:02.370Z,3.72
2022-09-09T09:30:36.013Z,3.70
2022-09-09T09:33:21.242Z,3.58
2022-09-09T09:35:54.555Z,3.90
2022-09-09T09:41:01.756Z,3.67
2022-09-09T09:43:37.388Z,3.17
2022-09-09T09:46:18.384Z,2.20
2022-09-09T09:48:42.830Z,3.42
2022-09-09T09:51:16.874Z,2.33
2022-09-09T09:53:47.876Z,3.92
2022-09-09T09:56:18.363Z,4.15
2022-09-09T09:58:52.053Z,3.17
2022-09-09T10:01:30.967Z,4.53
2022-09-09T10:04:20.453Z,3.85
2022-09-09T10:06:51.755Z,3.22
2022-09-09T10:09:33.855Z,3.52
2022-09-09T10:12:16.052Z,3.15
2022-09-09T10:15:07.364Z,2.95
2022-09-09T10:17:43.636Z,3.80
2022-09-09T10:20:36.711Z,3.80
2022-09-09T10:23:16.138Z,4.53
2022-09-09T10:25:49.587Z,4.65
2022-09-09T10:28:41.625Z,2.85
2022-09-09T10:31:27.751Z,3.10
2022-09-09T10:34:01.236Z,4.45
2022-09-09T10:36:31.610Z,2.00
2022-09-09T10:39:05.592Z,3.10
2022-09-09T10:41:39.910Z,2.87
2022-09-09T10:44:30.758Z,2.87
2022-09-09T10:47:08.048Z,2.05
2022-09-09T10:49:57.499Z,4.03
2022-09-09T10:52:45.855Z,3.30
2022-09-09T10:55:29.713Z,2.80
2022-09-09T10:58:01.674Z,2.55
2022-09-09T11:00:40.831Z,4.92
2022-09-09T11:03:17.071Z,2.25
2022-09-09T11:05:50.548Z,2.35
2022-09-09T11:08:27.364Z,3.25
2022-09-09T11:11:24.897Z,3.80
2022-09-09T11:14:01.151Z,1.72
2022-09-09T11:16:49.852Z,4.83
2022-09-09T11:19:26.058Z,2.72
2022-09-09T11:21:58.899Z,3.08
2022-09-09T11:24:35.484Z,2.75
2022-09-09T11:27:17.952Z,2.70
2022-09-09T11:30:07.562Z,3.85
2022-09-09T11:32:46.914Z,2.50
2022-09-09T11:35:56.243Z,4.37
2022-09-09T11:38:48.840Z,3.83
2022-09-09T11:41:22.106Z,4.05
2022-09-09T11:43:53.943Z,2.83
2022-09-09T11:46:36.246Z,1.92
2022-09-09T11:49:10.024Z,3.02
2022-09-09T11:51:41.075Z,3.02
2022-09-09T11:54:36.016Z,2.33
2022-09-09T11:57:06.849Z,1.40
2022-09-09T11:59:38.166Z,1.60
2022-09-09T12:02:15.521Z,1.82
2022-09-09T12:05:05.348Z,2.60
2022-09-09T12:07:39.308Z,2.40
2022-09-09T12:10:30.967Z,2.30
2022-09-09T12:13:23.788Z,2.10
2022-09-09T12:15:56.734Z,1.72
2022-09-09T12:18:35.675Z,2.37
2022-09-09T12:21:11.854Z,2.00
2022-09-09T12:23:47.792Z,2.25
2022-09-09T12:26:39.245Z,2.35
2022-09-09T12:29:30.596Z,3.75
2022-09-09T12:32:09.805Z,2.87
2022-09-09T12:35:03.875Z,2.60
2022-09-09T12:37:49.364Z,2.75
2022-09-09T12:40:28.976Z,3.27
2022-09-09T12:43:02.378Z,1.60
2022-09-09T12:45:36.969Z,3.15
2022-09-09T12:48:16.723Z,2.80
2022-09-09T12:50:52.477Z,2.12
2022-09-09T12:53:27.423Z,2.45
2022-09-09T12:56:11.622Z,1.92
2022-09-09T12:58:45.173Z,3.15
2022-09-09T13:01:29.644Z,2.75
2022-09-09T13:04:00.849Z,3.12
2022-09-09T13:06:33.499Z,2.42
2022-09-09T13:09:04.796Z,3.37
2022-09-09T13:11:44.207Z,2.25
2022-09-09T13:14:21.236Z,2.50
2022-09-09T13:17:00.323Z,3.98
2022-09-09T13:19:34.077Z,2.85
2022-09-09T13:22:28.527Z,3.52
2022-09-09T13:25:07.689Z,3.85
2022-09-09T13:27:43.573Z,2.22
2022-09-09T13:30:30.144Z,1.55
2022-09-09T13:33:18.699Z,3.20
2022-09-09T13:35:54.810Z,2.58
2022-09-09T13:38:27.615Z,2.67
2022-09-09T13:41:05.170Z,1.70
2022-09-09T13:43:48.166Z,4.62
2022-09-09T13:46:33.582Z,1.47
2022-09-09T13:49:12.688Z,3.02
2022-09-09T13:51:47.328Z,2.45
2022-09-09T13:54:20.103Z,2.20
2022-09-09T13:56:50.730Z,1.82
2022-09-09T13:59:22.399Z,2.20
2022-09-09T14:01:53.468Z,3.30
2022-09-09T14:04:23.910Z,3.65
2022-09-09T14:06:54.287Z,2.58
2022-09-09T14:09:24.669Z,1.72
2022-09-09T14:11:56.281Z,4.37
2022-09-09T14:14:26.660Z,3.55
2022-09-09T14:16:57.062Z,3.92
2022-09-09T14:19:27.513Z,2.92
2022-09-09T14:21:57.913Z,2.67
2022-09-09T14:24:28.837Z,2.40
2022-09-09T14:26:59.240Z,2.55
2022-09-09T14:29:29.706Z,3.72
2022-09-09T14:32:01.997Z,3.40
2022-09-09T14:34:34.169Z,3.00
2022-09-09T14:37:04.661Z,2.17
2022-09-09T14:39:35.295Z,5.83
2022-09-09T14:42:06.350Z,3.15
2022-09-09T14:44:36.742Z,2.80
2022-09-09T14:47:10.270Z,3.12
2022-09-09T14:49:42.629Z,2.90
2022-09-09T14:52:12.695Z,4.30
2022-09-09T14:54:43.062Z,3.85
2022-09-09T14:57:13.579Z,2.35
2022-09-09T14:59:43.988Z,4.08
2022-09-09T15:02:15.220Z,1.70
2022-09-09T15:04:46.887Z,2.58
2022-09-09T15:07:19.403Z,2.05
2022-09-09T15:09:49.721Z,2.02
2022-09-09T15:12:21.377Z,2.95
2022-09-09T15:14:53.225Z,2.65
2022-09-09T15:17:25.645Z,3.08
2022-09-09T15:19:56.020Z,2.22
2022-09-09T15:22:26.739Z,3.00
2022-09-09T15:24:58.636Z,2.58
2022-09-09T15:27:30.000Z,2.22
2022-09-09T15:30:01.740Z,2.08
2022-09-09T15:32:34.226Z,3.67
2022-09-09T15:35:04.830Z,2.50
2022-09-09T15:37:35.232Z,2.80
2022-09-09T15:40:06.026Z,1.92
2022-09-09T15:42:36.405Z,2.05
2022-09-09T15:45:07.747Z,1.47
2022-09-09T15:47:38.147Z,2.70
2022-09-09T15:50:08.990Z,2.50
2022-09-09T15:52:39.637Z,4.85
2022-09-09T15:55:10.506Z,14.00
2022-09-09T15:57:41.602Z,5.30
2022-09-09T16:00:14.018Z,3.62
2022-09-09T16:02:44.480Z,4.28
2022-09-09T16:05:15.005Z,6.58
2022-09-09T16:07:45.985Z,3.37
2022-09-09T16:10:16.820Z,3.22
2022-09-09T16:12:47.708Z,2.85
2022-09-09T16:15:18.574Z,2.83
2022-09-09T16:17:49.027Z,2.62
2022-09-09T16:20:19.890Z,2.30
2022-09-09T16:22:50.293Z,2.98
2022-09-09T16:25:21.477Z,2.60
2022-09-09T16:27:51.904Z,2.17
2022-09-09T16:30:22.800Z,2.62
2022-09-09T16:32:54.501Z,2.22
2022-09-09T16:35:24.824Z,3.25
2022-09-09T16:37:55.187Z,2.55
2022-09-09T16:40:25.551Z,2.45
2022-09-09T16:42:56.042Z,3.90
2022-09-09T16:45:26.428Z,3.12
2022-09-09T16:47:57.273Z,4.70
2022-09-09T16:50:28.155Z,3.27
2022-09-09T16:52:58.619Z,3.62
2022-09-09T16:55:30.933Z,2.45
2022-09-09T16:58:01.537Z,3.70
2022-09-09T17:00:31.908Z,2.58
2022-09-09T17:03:03.414Z,4.90
2022-09-09T17:05:33.759Z,2.83
2022-09-09T17:08:05.724Z,2.00
2022-09-09T17:10:36.459Z,3.08
2022-09-09T17:13:06.869Z,3.00
2022-09-09T17:15:44.962Z,4.22
2022-09-09T17:18:15.323Z,7.37
2022-09-09T17:20:47.477Z,4.05
2022-09-09T17:23:18.110Z,3.65
2022-09-09T17:25:51.868Z,2.83
2022-09-09T17:28:23.901Z,3.58
2022-09-09T17:30:55.089Z,2.85
2022-09-09T17:33:27.103Z,2.72
2022-09-09T17:35:58.225Z,5.20
2022-09-09T17:38:30.712Z,2.65
2022-09-09T17:41:07.019Z,3.60
2022-09-09T17:43:38.690Z,2.87
2022-09-09T17:46:11.813Z,2.65
2022-09-09T17:48:44.515Z,4.17
2022-09-09T17:51:19.259Z,2.72
2022-09-09T17:53:51.276Z,4.22
2022-09-09T17:56:23.564Z,4.45
2022-09-09T17:58:54.629Z,3.50
2022-09-09T18:01:31.332Z,3.45
2022-09-09T18:04:04.595Z,7.33
2022-09-09T18:06:38.394Z,7.03
2022-09-09T18:09:13.104Z,5.95
2022-09-09T18:11:46.079Z,5.58
2022-09-09T18:14:20.291Z,3.10
2022-09-09T18:16:51.864Z,5.30
2022-09-09T18:19:24.982Z,5.20
2022-09-09T18:21:57.582Z,4.30
2022-09-09T18:24:28.190Z,4.10
2022-09-09T18:26:58.651Z,2.60
2022-09-09T18:29:29.722Z,3.90
2022-09-09T18:32:00.132Z,2.58
2022-09-09T18:34:30.725Z,2.58
2022-09-09T18:37:01.091Z,3.72
2022-09-09T18:39:31.974Z,4.20
2022-09-09T18:42:03.004Z,4.12
2022-09-09T18:44:35.748Z,3.85
2022-09-09T18:47:08.015Z,2.47
2022-09-09T18:49:38.418Z,3.62
2022-09-09T18:52:12.810Z,2.65
2022-09-09T18:54:42.530Z,3.72
2022-09-09T18:57:13.509Z,3.45
2022-09-09T18:59:43.901Z,3.22
2022-09-09T19:02:14.914Z,2.95
2022-09-09T19:04:45.297Z,3.85
2022-09-09T19:07:15.706Z,3.27
2022-09-09T19:09:46.535Z,3.20
2022-09-09T19:12:17.306Z,3.08
2022-09-09T19:14:47.864Z,3.33
2022-09-09T19:17:18.260Z,2.87
2022-09-09T19:19:51.411Z,2.47
2022-09-09T19:22:23.223Z,3.05
2022-09-09T19:24:53.597Z,2.45
2022-09-09T19:27:24.093Z,1.90
2022-09-09T19:30:05.180Z,2.90
2022-09-09T19:32:52.608Z,2.22
2022-09-09T19:35:11.119Z,8.03
2022-09-09T19:37:42.195Z,3.47
2022-09-09T19:40:12.861Z,3.98
2022-09-09T19:42:43.978Z,2.98
2022-09-09T19:45:14.290Z,3.02
2022-09-09T19:47:44.677Z,3.20
2022-09-09T19:50:15.125Z,2.20
2022-09-09T19:52:45.547Z,2.90
2022-09-09T19:55:16.073Z,3.17
2022-09-09T19:57:46.395Z,2.62
2022-09-09T20:00:18.560Z,3.08
2022-09-09T20:03:15.212Z,2.25
2022-09-09T20:05:23.753Z,3.58
2022-09-09T20:07:54.134Z,3.10
2022-09-09T20:10:24.623Z,2.37
2022-09-09T20:12:55.189Z,2.50
2022-09-09T20:15:26.310Z,2.12
2022-09-09T20:17:58.144Z,2.67
2022-09-09T20:20:29.017Z,2.62
2022-09-09T20:22:59.403Z,2.67
2022-09-09T20:25:29.987Z,3.15
2022-09-09T20:28:00.366Z,3.58
2022-09-09T20:30:31.207Z,2.15
2022-09-09T20:33:01.605Z,3.37
2022-09-09T20:35:33.144Z,1.60
2022-09-09T20:38:03.638Z,4.70
2022-09-09T20:40:38.697Z,3.67
2022-09-09T20:43:10.700Z,2.25
2022-09-09T20:45:42.705Z,1.87
2022-09-09T20:48:13.039Z,2.55
2022-09-09T20:50:43.453Z,2.12
2022-09-09T20:53:14.020Z,3.15
2022-09-09T20:55:44.356Z,3.02
2022-09-09T20:58:14.685Z,3.33
2022-09-09T21:00:44.926Z,2.47
2022-09-09T21:03:15.683Z,3.98
2022-09-09T21:05:47.751Z,4.22
2022-09-09T21:08:18.480Z,2.08
2022-09-09T21:10:49.709Z,2.72
2022-09-09T21:13:20.973Z,1.90
2022-09-09T21:15:52.617Z,3.08
2022-09-09T21:18:27.363Z,2.87
2022-09-09T21:20:58.086Z,3.42
2022-09-09T21:23:29.184Z,4.28
2022-09-09T21:25:59.815Z,3.52
2022-09-09T21:28:31.353Z,4.45
2022-09-09T21:31:02.374Z,3.25
2022-09-09T21:33:34.459Z,3.00
2022-09-09T21:36:09.046Z,3.92
2022-09-09T21:38:42.605Z,3.62
2022-09-09T21:41:15.673Z,2.35
2022-09-09T21:43:47.288Z,2.33
2022-09-09T21:46:18.478Z,2.50
2022-09-09T21:48:48.999Z,2.67
2022-09-09T21:51:19.747Z,2.37
2022-09-09T21:53:50.456Z,2.10
2022-09-09T21:56:20.834Z,2.30
2022-09-09T21:58:56.840Z,2.42
2022-09-09T22:01:27.425Z,3.50
2022-09-09T22:03:57.859Z,2.67
2022-09-09T22:06:28.518Z,1.87
2022-09-09T22:08:59.354Z,2.20
2022-09-09T22:11:31.175Z,3.90
2022-09-09T22:14:02.544Z,2.37
2022-09-09T22:16:32.989Z,1.85
2022-09-09T22:19:03.591Z,2.27
2022-09-09T22:21:34.168Z,2.35
2022-09-09T22:24:06.673Z,2.52
2022-09-09T22:26:38.237Z,2.62
2022-09-09T22:29:09.013Z,2.90
2022-09-09T22:31:40.081Z,3.05
2022-09-09T22:34:10.515Z,2.47
2022-09-09T22:36:40.943Z,3.45
2022-09-09T22:39:11.317Z,1.95
2022-09-09T22:41:42.523Z,2.95
2022-09-09T22:44:13.073Z,3.42
2022-09-09T22:46:43.791Z,2.42
2022-09-09T22:49:14.640Z,2.65
2022-09-09T22:51:45.020Z,3.52
2022-09-09T22:54:15.402Z,3.70
2022-09-09T22:56:45.716Z,3.17
2022-09-09T22:59:16.080Z,3.55
2022-09-09T23:01:47.929Z,2.90
2022-09-09T23:04:19.920Z,2.60
2022-09-09T23:06:50.235Z,2.65
2022-09-09T23:09:20.758Z,3.15
2022-09-09T23:11:51.493Z,2.42
2022-09-09T23:14:22.038Z,3.35
2022-09-09T23:16:52.607Z,2.83
2022-09-09T23:19:23.868Z,3.55
2022-09-09T23:21:57.839Z,2.60
2022-09-09T23:24:29.085Z,2.90
2022-09-09T23:26:59.574Z,3.22
2022-09-09T23:29:30.027Z,3.45
2022-09-09T23:32:00.542Z,3.60
2022-09-09T23:34:31.796Z,3.25
2022-09-09T23:37:02.597Z,3.20
2022-09-09T23:39:32.957Z,2.83
2022-09-09T23:42:06.341Z,3.08
2022-09-09T23:44:38.161Z,2.47
2022-09-09T23:47:09.861Z,2.40
2022-09-09T23:49:40.176Z,2.80
2022-09-09T23:52:10.667Z,2.55
2022-09-09T23:54:41.050Z,3.00
2022-09-09T23:57:13.533Z,4.40
2022-09-09T23:59:43.881Z,2.60
